Portada
METAR-TAF:

METAR-TAF

Aeroports :

Puerto San José, Guatemala

latitud: 13-55N, longitud: 090-49W, altitud: 2 m

Observació

L'informe es va fer fa 4 hores i 21 minuts, a les 00:00 UTC
Vent 5 kt del Sud
Temperatura 28°C
Humitat 74%
Pressió 1011 hPa
Visibilitat 10 km o més
Escasses núvols a una alçada de 20000 ft

METAR: MGSJ 060000Z 18005KT CAVOK 28/23 Q1011 A2985 FEW200

Hora: 22:21 (04:21 UTC)

Pronòstic

L'informe es va fer fa 5 hores i 21 minuts, a les 23:00 UTC
Pronòstic vàlid del 06 a les 00 UTC al 07 a les 00 UTC
Vent kt del Nord
Visibilitat 10 km o més
sense núvols per sota de 1500 mi sense presència de cumulonimbus.
Evolucionant progressivament
l' 06 a les 16 UTC al 06 a les 18 UTC
Vent 8 kt del Sud
Temporalment
l' 06 a les 20 UTC al 07 a les 00 UTC
Vent 12 kt del Sud-Oest
Visibilitat: 8000 m
Escasses núvols a una alçada de 2000 ft

TAF: MGSJ 052300Z 0600/0700 00000KT CAVOK TX33/0620Z TN22/0612Z BECMG 0616/0618 18008KT TEMPO 0620/0700 22012KT 8000 FEW020

Observacions i pronòstics meteorològics de més de 4000 aeroports (METAR i TAF).

Les estacions disponibles són els punts grocs i vermells al mapa.

Posi el ratolí al punt desitjat per veure el nom de l'estació.

Feu clic per veure les observacions i els pronòstics meteorològics.

Per canviar el mapa: feu clic els botons verds amb una creu de color negre per apropar; al botó verd amb un guió per allunyar la imatge; o en les fletxes verdes per a mapes adjacents.


METAR-TAF: